Talmadge, Maine
Current Conditions -  °F | °C
As of 11:53 AM on Tuesday 27 Jan 2015 (Local Time) from KHUL Reporting Station
Heavy Snow Heavy Snow  
Wind Chill: -11°   Ceiling: 300
Heat Index:   Visibility: 0.25mi
Dew Point:   Wind: 18mph
Humidity: 83%   Direction: 20°NNE
Pressure: 29.9"   Gusts: NA
Location:  45.3759°N, 67.6018°W
Report Text: KHUL 271653Z AUTO 02016KT 1/4SM +SN FZFG VV003 M13/M16 A2990 RMK AO2 SLP138 P0001 T11331156
Loading
Personal Weather Stations






























Interactive Weather Map New forecast layout! Learn more

10-Day Weather Forecast

Advertisements
Track Severe Weather on mobile